Time;durP1;ratioP1;P1;durP2;ratioP2;P2;SDS_P1;SDS_P2;PMS_P1;PMS_P2;Temp;Humidity;BMP_temperature;BMP_pressure;BME280_temperature;BME280_humidity;BME280_pressure;Samples;Min_cycle;Max_cycle;Signal;HPM_P1;HPM_P2
2023/12/30 00:00:52;;;;;;;;;;;8.50;99.90;;;;;;5141233;27;20583;-69
2023/12/30 00:03:17;;;;;;;;;;;8.50;99.90;;;;;;5125426;27;19918;-69
2023/12/30 00:05:43;;;;;;;;;;;8.50;99.90;;;;;;5126502;27;19989;-69
2023/12/30 00:08:08;;;;;;;;;;;8.50;99.90;;;;;;5126774;27;20279;-69
2023/12/30 00:10:34;;;;;;;;;;;8.50;99.90;;;;;;5136481;27;19918;-69
2023/12/30 00:13:00;;;;;;;;;;;8.50;99.90;;;;;;5137811;27;19999;-69
2023/12/30 00:15:26;;;;;;;;;;;8.50;99.90;;;;;;5127173;27;20006;-69
2023/12/30 00:17:51;;;;;;;;;;;8.50;99.90;;;;;;5126529;27;20002;-68
2023/12/30 00:20:17;;;;;;;;;;;8.50;99.90;;;;;;5126492;27;19967;-68
2023/12/30 00:22:43;;;;;;;;;;;8.50;99.90;;;;;;5107782;27;19954;-69
2023/12/30 00:25:10;;;;;;;;;;;8.50;99.90;;;;;;5106732;27;19999;-69
2023/12/30 00:27:35;;;;;;;;;;;8.50;99.90;;;;;;5134072;27;19911;-68
2023/12/30 00:30:01;;;;;;;;;;;8.40;99.90;;;;;;5129510;27;19912;-68
2023/12/30 00:32:26;;;;;;;;;;;8.40;99.90;;;;;;5127728;27;19932;-69
2023/12/30 00:34:52;;;;;;;;;;;8.40;99.90;;;;;;5125817;27;19915;-69
2023/12/30 00:37:18;;;;;;;;;;;8.40;99.90;;;;;;5125948;27;19916;-68
2023/12/30 00:39:44;;;;;;;;;;;8.40;99.90;;;;;;5127410;27;19953;-69
2023/12/30 00:42:10;;;;;;;;;;;8.40;99.90;;;;;;5131121;27;20375;-68
2023/12/30 00:44:35;;;;;;;;;;;8.40;99.90;;;;;;5131025;27;20011;-69
2023/12/30 00:47:01;;;;;;;;;;;8.40;99.90;;;;;;5126130;27;20392;-69
2023/12/30 00:49:26;;;;;;;;;;;8.40;99.90;;;;;;5126324;27;19918;-69
2023/12/30 00:51:52;;;;;;;;;;;8.40;99.90;;;;;;5126528;27;19915;-69
2023/12/30 00:54:17;;;;;;;;;;;8.40;99.90;;;;;;5126172;27;20328;-69
2023/12/30 00:56:43;;;;;;;;;;;8.40;99.90;;;;;;5119732;27;19920;-69
2023/12/30 00:59:08;;;;;;;;;;;8.40;99.90;;;;;;5136737;27;19929;-69
2023/12/30 01:01:34;;;;;;;;;;;8.40;99.90;;;;;;5126753;27;19915;-69
2023/12/30 01:03:59;;;;;;;;;;;8.40;99.90;;;;;;5126347;27;20027;-68
2023/12/30 01:06:25;;;;;;;;;;;8.40;99.90;;;;;;5127511;27;20340;-68
2023/12/30 01:08:50;;;;;;;;;;;8.40;99.90;;;;;;5126575;27;19908;-69
2023/12/30 01:11:16;;;;;;;;;;;8.40;99.90;;;;;;5132239;27;19908;-69
2023/12/30 01:13:41;;;;;;;;;;;8.40;99.90;;;;;;5133966;27;19911;-69
2023/12/30 01:16:07;;;;;;;;;;;8.30;99.90;;;;;;5134135;27;19911;-69
2023/12/30 01:18:32;;;;;;;;;;;8.40;99.90;;;;;;5125829;27;19946;-69
2023/12/30 01:20:58;;;;;;;;;;;8.40;99.90;;;;;;5132386;27;19993;-68
2023/12/30 01:23:23;;;;;;;;;;;8.30;99.90;;;;;;5129122;27;19907;-69
2023/12/30 01:25:49;;;;;;;;;;;8.40;99.90;;;;;;5130627;27;19908;-69
2023/12/30 01:28:14;;;;;;;;;;;8.40;99.90;;;;;;5129703;27;19918;-69
2023/12/30 01:30:40;;;;;;;;;;;8.40;99.90;;;;;;5126411;27;20011;-69
2023/12/30 01:33:05;;;;;;;;;;;8.30;99.90;;;;;;5124629;27;19931;-69
2023/12/30 01:35:32;;;;;;;;;;;8.40;99.90;;;;;;5124819;27;19960;-69
2023/12/30 01:37:57;;;;;;;;;;;8.30;99.90;;;;;;5124997;27;20565;-69
2023/12/30 01:40:24;;;;;;;;;;;8.30;99.90;;;;;;5124194;27;19908;-69
2023/12/30 01:42:50;;;;;;;;;;;8.30;99.90;;;;;;5125064;27;19978;-69
2023/12/30 01:45:15;;;;;;;;;;;8.30;99.90;;;;;;5125376;27;20599;-69
2023/12/30 01:47:41;;;;;;;;;;;8.30;99.90;;;;;;5125116;27;19964;-69
2023/12/30 01:50:08;;;;;;;;;;;8.30;99.90;;;;;;5124812;27;19922;-69
2023/12/30 01:52:35;;;;;;;;;;;8.30;99.90;;;;;;5140211;27;20019;-69
2023/12/30 01:55:01;;;;;;;;;;;8.30;99.90;;;;;;5124763;27;19916;-69
2023/12/30 01:57:27;;;;;;;;;;;8.30;99.90;;;;;;5130980;27;19911;-69
2023/12/30 01:59:52;;;;;;;;;;;8.30;99.90;;;;;;5143903;27;20411;-69
2023/12/30 02:02:18;;;;;;;;;;;8.30;99.90;;;;;;5131758;27;19911;-69
2023/12/30 02:04:44;;;;;;;;;;;8.30;99.90;;;;;;5134082;27;19912;-68
2023/12/30 02:07:09;;;;;;;;;;;8.30;99.90;;;;;;5130836;27;19915;-69
2023/12/30 02:09:35;;;;;;;;;;;8.20;99.90;;;;;;5119212;27;19911;-69
2023/12/30 02:12:00;;;;;;;;;;;8.20;99.90;;;;;;5121082;27;19915;-68
2023/12/30 02:14:26;;;;;;;;;;;8.20;99.90;;;;;;5131772;27;19940;-68
2023/12/30 02:16:52;;;;;;;;;;;8.20;99.90;;;;;;5134555;27;20002;-68
2023/12/30 02:19:18;;;;;;;;;;;8.20;99.90;;;;;;5140998;27;20061;-68
2023/12/30 02:21:43;;;;;;;;;;;8.20;99.90;;;;;;5115284;28;19911;-69
2023/12/30 02:24:09;;;;;;;;;;;8.20;99.90;;;;;;5138902;27;19919;-68
2023/12/30 02:26:34;;;;;;;;;;;8.20;99.90;;;;;;5127043;27;19915;-69
2023/12/30 02:29:00;;;;;;;;;;;8.20;99.90;;;;;;5134933;27;20449;-69
2023/12/30 02:31:25;;;;;;;;;;;8.10;99.90;;;;;;5132926;27;19932;-69
2023/12/30 02:33:51;;;;;;;;;;;8.20;99.90;;;;;;5135303;27;19912;-69
2023/12/30 02:36:17;;;;;;;;;;;8.10;99.90;;;;;;5141669;27;19947;-69
2023/12/30 02:38:42;;;;;;;;;;;8.10;99.90;;;;;;5132555;27;19966;-69
2023/12/30 02:41:08;;;;;;;;;;;8.10;99.90;;;;;;5125833;27;19911;-68
2023/12/30 02:43:46;;;;;;;;;;;8.10;99.90;;;;;;5125323;27;19915;-69
2023/12/30 02:46:12;;;;;;;;;;;8.10;99.90;;;;;;5120764;27;20731;-69
2023/12/30 02:48:38;;;;;;;;;;;8.10;99.90;;;;;;5103158;28;20537;-69
2023/12/30 02:51:03;;;;;;;;;;;8.10;99.90;;;;;;5136518;27;20006;-68
2023/12/30 02:53:29;;;;;;;;;;;8.10;99.90;;;;;;5125048;27;19925;-69
2023/12/30 02:55:54;;;;;;;;;;;8.10;99.90;;;;;;5136034;27;20015;-69
2023/12/30 02:58:20;;;;;;;;;;;8.10;99.90;;;;;;5133828;27;19911;-69
2023/12/30 03:00:45;;;;;;;;;;;8.10;99.90;;;;;;5139903;27;19911;-69
2023/12/30 03:03:11;;;;;;;;;;;8.00;99.90;;;;;;5137061;27;19918;-69
2023/12/30 03:05:36;;;;;;;;;;;8.00;99.90;;;;;;5120058;27;19965;-68
2023/12/30 03:08:02;;;;;;;;;;;8.00;99.90;;;;;;5134180;27;19912;-69
2023/12/30 03:10:28;;;;;;;;;;;8.00;99.90;;;;;;5142391;27;19911;-69
2023/12/30 03:12:53;;;;;;;;;;;8.00;99.90;;;;;;5120286;27;19950;-68
2023/12/30 03:15:20;;;;;;;;;;;8.00;99.90;;;;;;5129232;27;19953;-69
2023/12/30 03:17:45;;;;;;;;;;;8.00;99.90;;;;;;5136815;27;19911;-68
2023/12/30 03:20:11;;;;;;;;;;;8.00;99.90;;;;;;5127710;27;19915;-68
2023/12/30 03:22:37;;;;;;;;;;;8.00;99.90;;;;;;5135478;27;20367;-68
2023/12/30 03:25:03;;;;;;;;;;;8.00;99.90;;;;;;5104241;27;20419;-68
2023/12/30 03:27:28;;;;;;;;;;;8.00;99.90;;;;;;5134623;27;19935;-69
2023/12/30 03:29:54;;;;;;;;;;;8.00;99.90;;;;;;5134937;27;19918;-68
2023/12/30 03:32:20;;;;;;;;;;;8.00;99.90;;;;;;5132701;27;20494;-69
2023/12/30 03:34:45;;;;;;;;;;;7.90;99.90;;;;;;5140335;27;19919;-69
2023/12/30 03:37:10;;;;;;;;;;;8.00;99.90;;;;;;5128402;27;19912;-69
2023/12/30 03:39:36;;;;;;;;;;;8.00;99.90;;;;;;5112301;27;20454;-69
2023/12/30 03:42:01;;;;;;;;;;;8.00;99.90;;;;;;5126119;27;19911;-69
2023/12/30 03:44:27;;;;;;;;;;;7.90;99.90;;;;;;5142501;27;19911;-69
2023/12/30 03:46:52;;;;;;;;;;;7.90;99.90;;;;;;5138763;27;19918;-69
2023/12/30 03:49:18;;;;;;;;;;;7.90;99.90;;;;;;5136210;27;20283;-69
2023/12/30 03:51:43;;;;;;;;;;;7.90;99.90;;;;;;5119442;27;19934;-68
2023/12/30 03:54:09;;;;;;;;;;;7.90;99.90;;;;;;5136082;27;19915;-69
2023/12/30 03:56:37;;;;;;;;;;;7.90;99.90;;;;;;5118972;27;20361;-69
2023/12/30 03:59:03;;;;;;;;;;;7.90;99.90;;;;;;5118691;27;19938;-69
2023/12/30 04:01:28;;;;;;;;;;;7.90;99.90;;;;;;5121224;27;20364;-69
2023/12/30 04:03:54;;;;;;;;;;;7.90;99.90;;;;;;5132572;27;19954;-68
2023/12/30 04:06:19;;;;;;;;;;;7.90;99.90;;;;;;5123365;27;19911;-69
2023/12/30 04:08:45;;;;;;;;;;;7.90;99.90;;;;;;5122966;27;19912;-69
2023/12/30 04:11:10;;;;;;;;;;;7.90;99.90;;;;;;5107833;27;19923;-69
2023/12/30 04:13:36;;;;;;;;;;;7.90;99.90;;;;;;5125355;27;19922;-69
2023/12/30 04:16:02;;;;;;;;;;;7.90;99.90;;;;;;5120416;27;19968;-68
2023/12/30 04:18:27;;;;;;;;;;;7.90;99.90;;;;;;5142378;27;19918;-69
2023/12/30 04:20:53;;;;;;;;;;;7.90;99.90;;;;;;5144495;27;19911;-69
2023/12/30 04:23:18;;;;;;;;;;;7.90;99.90;;;;;;5130702;27;19943;-68
2023/12/30 04:25:44;;;;;;;;;;;7.90;99.90;;;;;;5122965;27;19980;-68
2023/12/30 04:28:09;;;;;;;;;;;7.90;99.90;;;;;;5126630;27;20387;-69
2023/12/30 04:30:35;;;;;;;;;;;7.90;99.90;;;;;;5126410;27;20453;-69
2023/12/30 04:33:00;;;;;;;;;;;7.90;99.90;;;;;;5114619;27;19915;-68
2023/12/30 04:35:26;;;;;;;;;;;7.90;99.90;;;;;;5101476;27;19951;-69
2023/12/30 04:37:51;;;;;;;;;;;7.90;99.90;;;;;;5126486;27;19911;-68
2023/12/30 04:40:16;;;;;;;;;;;7.90;99.90;;;;;;5121846;27;20417;-69
2023/12/30 04:42:42;;;;;;;;;;;7.90;99.90;;;;;;5138289;27;19914;-69
2023/12/30 04:45:12;;;;;;;;;;;7.90;99.90;;;;;;5126766;27;20808;-68
2023/12/30 04:47:38;;;;;;;;;;;7.90;99.90;;;;;;5126358;27;19947;-69
2023/12/30 04:50:04;;;;;;;;;;;7.90;99.90;;;;;;5144413;27;19911;-69
2023/12/30 04:52:29;;;;;;;;;;;7.90;99.90;;;;;;5126809;27;19912;-69
2023/12/30 04:54:55;;;;;;;;;;;7.90;99.90;;;;;;5131666;27;19970;-69
2023/12/30 04:57:20;;;;;;;;;;;7.90;99.90;;;;;;5130132;27;20340;-69
2023/12/30 04:59:46;;;;;;;;;;;7.90;99.90;;;;;;5121874;27;19919;-69
2023/12/30 05:02:11;;;;;;;;;;;7.90;99.90;;;;;;5122476;27;19968;-69
2023/12/30 05:04:37;;;;;;;;;;;7.80;99.90;;;;;;5112487;27;19976;-69
2023/12/30 05:07:02;;;;;;;;;;;7.80;99.90;;;;;;5118696;27;20287;-68
2023/12/30 05:09:28;;;;;;;;;;;7.80;99.90;;;;;;5125996;27;19912;-69
2023/12/30 05:11:54;;;;;;;;;;;7.80;99.90;;;;;;5125526;27;19907;-69
2023/12/30 05:14:20;;;;;;;;;;;7.80;99.90;;;;;;5130306;27;19914;-68
2023/12/30 05:16:45;;;;;;;;;;;7.80;99.90;;;;;;5138219;27;20597;-69
2023/12/30 05:19:14;;;;;;;;;;;7.80;99.90;;;;;;5122659;27;19973;-69
2023/12/30 05:21:39;;;;;;;;;;;7.80;99.90;;;;;;5121112;27;19949;-69
2023/12/30 05:24:05;;;;;;;;;;;7.80;99.90;;;;;;5134112;27;19947;-69
2023/12/30 05:26:31;;;;;;;;;;;7.80;99.90;;;;;;5119641;27;19911;-69
2023/12/30 05:28:57;;;;;;;;;;;7.80;99.90;;;;;;5114439;27;19912;-69
2023/12/30 05:31:23;;;;;;;;;;;7.80;99.90;;;;;;5138621;27;19915;-68
2023/12/30 05:33:49;;;;;;;;;;;7.80;99.90;;;;;;5116980;27;19915;-69
2023/12/30 05:36:14;;;;;;;;;;;7.80;99.90;;;;;;5117388;27;19916;-69
2023/12/30 05:38:40;;;;;;;;;;;7.80;99.90;;;;;;5091599;28;20023;-68
2023/12/30 05:41:05;;;;;;;;;;;7.80;99.90;;;;;;5132249;27;19921;-69
2023/12/30 05:43:31;;;;;;;;;;;7.80;99.90;;;;;;5093005;28;19912;-69
2023/12/30 05:45:56;;;;;;;;;;;7.80;99.90;;;;;;5106069;27;19930;-69
2023/12/30 05:48:22;;;;;;;;;;;7.80;99.90;;;;;;5141540;27;19919;-69
2023/12/30 05:50:47;;;;;;;;;;;7.70;99.90;;;;;;5107615;27;19968;-69
2023/12/30 05:53:13;;;;;;;;;;;7.80;99.90;;;;;;5121400;27;20634;-69
2023/12/30 05:55:38;;;;;;;;;;;7.70;99.90;;;;;;5129386;27;19926;-69
2023/12/30 05:58:04;;;;;;;;;;;7.70;99.90;;;;;;5119003;27;20612;-68
2023/12/30 06:00:29;;;;;;;;;;;7.70;99.90;;;;;;5131885;27;19911;-69
2023/12/30 06:02:55;;;;;;;;;;;7.70;99.90;;;;;;5141094;27;20306;-69
2023/12/30 06:05:20;;;;;;;;;;;7.70;99.90;;;;;;5113728;27;19912;-69
2023/12/30 06:07:46;;;;;;;;;;;7.70;99.90;;;;;;5122147;27;19908;-69
2023/12/30 06:10:12;;;;;;;;;;;7.70;99.90;;;;;;5104812;27;19951;-68
2023/12/30 06:12:38;;;;;;;;;;;7.70;99.90;;;;;;5120159;27;19919;-69
2023/12/30 06:15:03;;;;;;;;;;;7.70;99.90;;;;;;5133473;27;19963;-69
2023/12/30 06:17:29;;;;;;;;;;;7.70;99.90;;;;;;5133759;27;19912;-68
2023/12/30 06:19:55;;;;;;;;;;;7.70;99.90;;;;;;5131641;27;19912;-69
2023/12/30 06:22:21;;;;;;;;;;;7.70;99.90;;;;;;5125416;27;20382;-69
2023/12/30 06:24:46;;;;;;;;;;;7.70;99.90;;;;;;5124695;27;19910;-69
2023/12/30 06:27:12;;;;;;;;;;;7.70;99.90;;;;;;5097301;27;19979;-69
2023/12/30 06:29:37;;;;;;;;;;;7.60;99.90;;;;;;5134395;27;19966;-69
2023/12/30 06:32:03;;;;;;;;;;;7.60;99.90;;;;;;5133974;27;19926;-69
2023/12/30 06:34:28;;;;;;;;;;;7.70;99.90;;;;;;5131175;27;19922;-69
2023/12/30 06:36:54;;;;;;;;;;;7.60;99.90;;;;;;5121178;27;20763;-69
2023/12/30 06:39:20;;;;;;;;;;;7.60;99.90;;;;;;5128594;27;19911;-69
2023/12/30 06:41:46;;;;;;;;;;;7.60;99.90;;;;;;5128540;27;19999;-69
2023/12/30 06:44:11;;;;;;;;;;;7.60;99.90;;;;;;5136995;27;20002;-69
2023/12/30 06:46:37;;;;;;;;;;;7.60;99.90;;;;;;5144305;27;20367;-69
2023/12/30 06:49:02;;;;;;;;;;;7.60;99.90;;;;;;5105361;27;20515;-69
2023/12/30 06:51:28;;;;;;;;;;;7.60;99.90;;;;;;5121741;27;19919;-69
2023/12/30 06:53:54;;;;;;;;;;;7.60;99.90;;;;;;5117569;27;19998;-69
2023/12/30 06:56:19;;;;;;;;;;;7.60;99.90;;;;;;5141306;27;20244;-69
2023/12/30 06:58:45;;;;;;;;;;;7.60;99.90;;;;;;5132275;27;19956;-68
2023/12/30 07:01:14;;;;;;;;;;;7.60;99.90;;;;;;5127079;27;20014;-69
2023/12/30 07:03:40;;;;;;;;;;;7.60;99.90;;;;;;5131919;27;20284;-69
2023/12/30 07:06:06;;;;;;;;;;;7.60;99.90;;;;;;5137712;27;19916;-69
2023/12/30 07:08:31;;;;;;;;;;;7.60;99.90;;;;;;5131824;27;19907;-69
2023/12/30 07:10:57;;;;;;;;;;;7.60;99.90;;;;;;5113000;27;20326;-69
2023/12/30 07:13:22;;;;;;;;;;;7.60;99.90;;;;;;5123159;27;19924;-68
2023/12/30 07:15:50;;;;;;;;;;;7.60;99.90;;;;;;5114716;27;20375;-69
2023/12/30 07:18:15;;;;;;;;;;;7.60;99.90;;;;;;5141343;27;19911;-69
2023/12/30 07:20:41;;;;;;;;;;;7.60;99.90;;;;;;5138791;27;19910;-68
2023/12/30 07:23:07;;;;;;;;;;;7.60;99.90;;;;;;5119573;27;20532;-69
2023/12/30 07:25:33;;;;;;;;;;;7.50;99.90;;;;;;5129072;27;20019;-69
2023/12/30 07:27:58;;;;;;;;;;;7.60;99.90;;;;;;5135403;27;19994;-69
2023/12/30 07:30:24;;;;;;;;;;;7.50;99.90;;;;;;5128113;27;19912;-69
2023/12/30 07:32:49;;;;;;;;;;;7.50;99.90;;;;;;5128354;27;20143;-69
2023/12/30 07:35:15;;;;;;;;;;;7.50;99.90;;;;;;5139670;27;19960;-69
2023/12/30 07:37:41;;;;;;;;;;;7.50;99.90;;;;;;5133661;27;20090;-69
2023/12/30 07:40:06;;;;;;;;;;;7.50;99.90;;;;;;5134227;27;19918;-69
2023/12/30 07:42:32;;;;;;;;;;;7.50;99.90;;;;;;5128208;27;19911;-69
2023/12/30 07:44:57;;;;;;;;;;;7.50;99.90;;;;;;5126341;27;20253;-69
2023/12/30 07:47:25;;;;;;;;;;;7.50;99.90;;;;;;5112548;27;19915;-68
2023/12/30 07:49:50;;;;;;;;;;;7.50;99.90;;;;;;5121486;27;19912;-69
2023/12/30 07:52:16;;;;;;;;;;;7.50;99.90;;;;;;5146518;27;20213;-69
2023/12/30 07:54:41;;;;;;;;;;;7.50;99.90;;;;;;5144539;27;20363;-69
2023/12/30 07:57:07;;;;;;;;;;;7.50;99.90;;;;;;5140855;27;20438;-69
2023/12/30 07:59:32;;;;;;;;;;;7.50;99.90;;;;;;5118381;27;19911;-69
2023/12/30 08:01:58;;;;;;;;;;;7.50;99.90;;;;;;5135393;27;19907;-68
2023/12/30 08:04:24;;;;;;;;;;;7.50;99.90;;;;;;5122663;27;19924;-69
2023/12/30 08:06:50;;;;;;;;;;;7.60;99.90;;;;;;5140412;27;20422;-68
2023/12/30 08:09:15;;;;;;;;;;;7.50;99.90;;;;;;5138909;27;19963;-69
2023/12/30 08:11:42;;;;;;;;;;;7.50;99.90;;;;;;5123904;27;19911;-69
2023/12/30 08:14:07;;;;;;;;;;;7.50;99.90;;;;;;5146237;27;19915;-68
2023/12/30 08:16:34;;;;;;;;;;;7.60;99.90;;;;;;5130445;27;19918;-69
2023/12/30 08:18:59;;;;;;;;;;;7.50;99.90;;;;;;5129246;27;19933;-69
2023/12/30 08:21:25;;;;;;;;;;;7.60;99.90;;;;;;5113339;27;20248;-69
2023/12/30 08:23:51;;;;;;;;;;;7.60;99.90;;;;;;5147968;27;20002;-69
2023/12/30 08:26:16;;;;;;;;;;;7.50;99.90;;;;;;5138649;27;19919;-69
2023/12/30 08:28:42;;;;;;;;;;;7.60;99.90;;;;;;5138751;27;19911;-69
2023/12/30 08:31:07;;;;;;;;;;;7.50;99.90;;;;;;5111040;27;19926;-69
2023/12/30 08:33:33;;;;;;;;;;;7.60;99.90;;;;;;5128436;27;20288;-69
2023/12/30 08:35:58;;;;;;;;;;;7.60;99.90;;;;;;5138240;27;19919;-69
2023/12/30 08:38:24;;;;;;;;;;;7.60;99.90;;;;;;5133941;27;19912;-68
2023/12/30 08:40:49;;;;;;;;;;;7.60;99.90;;;;;;5134249;27;19919;-69
2023/12/30 08:43:15;;;;;;;;;;;7.60;99.90;;;;;;5134280;27;19918;-69
2023/12/30 08:45:40;;;;;;;;;;;7.60;99.90;;;;;;5141759;27;19987;-69
2023/12/30 08:48:06;;;;;;;;;;;7.60;99.90;;;;;;5118824;27;19999;-69
2023/12/30 08:50:31;;;;;;;;;;;7.60;99.90;;;;;;5140176;27;20102;-69
2023/12/30 08:52:57;;;;;;;;;;;7.60;99.90;;;;;;5145623;27;20394;-69
2023/12/30 08:55:23;;;;;;;;;;;7.60;99.90;;;;;;5130745;27;19973;-69
2023/12/30 08:57:48;;;;;;;;;;;7.60;99.90;;;;;;5120013;27;19907;-68
2023/12/30 09:00:14;;;;;;;;;;;7.70;99.90;;;;;;5138620;27;19964;-69
2023/12/30 09:02:46;;;;;;;;;;;7.70;99.90;;;;;;5113862;27;19918;-68
2023/12/30 09:05:14;;;;;;;;;;;7.60;99.90;;;;;;5126372;27;19932;-69
2023/12/30 09:07:39;;;;;;;;;;;7.70;99.90;;;;;;5147213;27;19907;-69
2023/12/30 09:10:05;;;;;;;;;;;7.70;99.90;;;;;;5113711;27;19911;-69
2023/12/30 09:12:31;;;;;;;;;;;7.70;99.90;;;;;;5112830;27;19910;-68
2023/12/30 09:14:56;;;;;;;;;;;7.70;99.90;;;;;;5136902;27;19923;-69
2023/12/30 09:17:22;;;;;;;;;;;7.70;99.90;;;;;;5138753;27;19954;-69
2023/12/30 09:19:48;;;;;;;;;;;7.70;99.90;;;;;;5122561;27;19911;-68
2023/12/30 09:22:13;;;;;;;;;;;7.70;99.90;;;;;;5127693;27;19994;-68
2023/12/30 09:24:39;;;;;;;;;;;7.70;99.90;;;;;;5132885;27;19960;-68
2023/12/30 09:27:04;;;;;;;;;;;7.70;99.90;;;;;;5145735;27;20547;-68
2023/12/30 09:29:30;;;;;;;;;;;7.80;99.90;;;;;;5145885;27;19921;-69
2023/12/30 09:31:55;;;;;;;;;;;7.70;99.90;;;;;;5130025;27;20018;-68
2023/12/30 09:34:21;;;;;;;;;;;7.80;99.90;;;;;;5146044;27;19957;-69
2023/12/30 09:36:46;;;;;;;;;;;7.80;99.90;;;;;;5122373;27;19912;-68
2023/12/30 09:39:12;;;;;;;;;;;7.80;99.90;;;;;;5122200;27;19980;-69
2023/12/30 09:41:39;;;;;;;;;;;7.80;99.90;;;;;;5140517;27;19919;-69
2023/12/30 09:44:05;;;;;;;;;;;7.80;99.90;;;;;;5125091;27;20651;-69
2023/12/30 09:46:31;;;;;;;;;;;7.80;99.90;;;;;;5134176;27;19911;-69
2023/12/30 09:48:57;;;;;;;;;;;7.80;99.90;;;;;;5134441;27;19993;-69
2023/12/30 09:51:22;;;;;;;;;;;7.80;99.90;;;;;;5137371;27;19911;-69
2023/12/30 09:53:48;;;;;;;;;;;7.80;99.90;;;;;;5138527;27;19923;-69
2023/12/30 09:56:14;;;;;;;;;;;7.80;99.90;;;;;;5122715;27;20013;-68
2023/12/30 09:58:40;;;;;;;;;;;7.80;99.90;;;;;;5126891;27;19907;-69
2023/12/30 10:01:05;;;;;;;;;;;7.90;99.90;;;;;;5147120;27;19911;-69
2023/12/30 10:03:31;;;;;;;;;;;7.80;99.90;;;;;;5139716;27;19911;-69
2023/12/30 10:06:01;;;;;;;;;;;7.90;99.90;;;;;;5149687;27;19987;-69
2023/12/30 10:08:30;;;;;;;;;;;7.90;99.90;;;;;;5134212;27;19915;-69
2023/12/30 10:10:57;;;;;;;;;;;7.90;99.90;;;;;;5138132;27;19918;-69
2023/12/30 10:13:25;;;;;;;;;;;7.90;99.90;;;;;;5140828;27;19915;-69
2023/12/30 10:15:55;;;;;;;;;;;7.90;99.90;;;;;;5123289;27;19998;-69
2023/12/30 10:18:20;;;;;;;;;;;7.90;99.90;;;;;;5112272;27;19918;-69
2023/12/30 10:20:46;;;;;;;;;;;8.00;99.90;;;;;;5139512;27;19915;-69
2023/12/30 10:23:12;;;;;;;;;;;8.00;99.90;;;;;;5103870;27;19918;-69
2023/12/30 10:25:39;;;;;;;;;;;8.00;99.90;;;;;;5125177;27;19985;-69
2023/12/30 10:28:05;;;;;;;;;;;8.00;99.90;;;;;;5120262;27;19912;-69
2023/12/30 10:30:31;;;;;;;;;;;8.00;99.90;;;;;;5133797;27;19912;-68
2023/12/30 10:33:07;;;;;;;;;;;8.00;99.90;;;;;;5135525;27;19911;-69
2023/12/30 10:35:32;;;;;;;;;;;8.10;99.90;;;;;;5124478;27;19916;-69
2023/12/30 10:37:59;;;;;;;;;;;8.10;99.90;;;;;;5104091;27;19963;-69
2023/12/30 10:40:25;;;;;;;;;;;8.10;99.90;;;;;;5130285;27;19911;-69
2023/12/30 10:42:50;;;;;;;;;;;8.10;99.90;;;;;;5128573;27;20503;-69
2023/12/30 10:45:16;;;;;;;;;;;8.10;99.90;;;;;;5121906;27;19923;-69
2023/12/30 10:47:41;;;;;;;;;;;8.10;99.90;;;;;;5105811;27;19911;-69
2023/12/30 10:50:07;;;;;;;;;;;8.20;99.90;;;;;;5118438;27;19912;-69
2023/12/30 10:52:35;;;;;;;;;;;8.20;99.90;;;;;;5116017;27;19955;-69
2023/12/30 10:55:10;;;;;;;;;;;8.20;99.90;;;;;;5147703;27;19922;-69
2023/12/30 10:57:37;;;;;;;;;;;8.20;99.90;;;;;;5116672;27;20529;-69
2023/12/30 11:00:09;;;;;;;;;;;8.30;99.90;;;;;;5135505;27;19980;-69
2023/12/30 11:02:38;;;;;;;;;;;8.30;99.90;;;;;;5136940;27;19907;-69
2023/12/30 11:05:05;;;;;;;;;;;8.30;99.90;;;;;;5128849;27;19911;-69
2023/12/30 11:07:31;;;;;;;;;;;8.30;99.90;;;;;;5132558;27;19911;-69
2023/12/30 11:09:57;;;;;;;;;;;8.30;99.90;;;;;;5146957;27;19911;-68
2023/12/30 11:12:25;;;;;;;;;;;8.40;99.90;;;;;;5111852;27;19922;-69
2023/12/30 11:14:51;;;;;;;;;;;8.40;99.90;;;;;;5118662;27;19938;-69
2023/12/30 11:17:33;;;;;;;;;;;8.40;99.90;;;;;;5129776;27;19961;-69
2023/12/30 11:20:18;;;;;;;;;;;8.40;99.90;;;;;;5124345;27;19912;-69
2023/12/30 11:22:45;;;;;;;;;;;8.40;99.90;;;;;;5115152;27;20234;-69
2023/12/30 11:25:13;;;;;;;;;;;8.40;99.90;;;;;;5135336;27;20029;-68
2023/12/30 11:27:38;;;;;;;;;;;8.40;99.90;;;;;;5122429;27;19917;-69
2023/12/30 11:30:05;;;;;;;;;;;8.40;99.90;;;;;;5121345;27;20369;-69
2023/12/30 11:32:30;;;;;;;;;;;8.40;99.90;;;;;;5116196;27;19934;-68
2023/12/30 11:34:59;;;;;;;;;;;8.40;99.90;;;;;;5147206;27;19911;-68
2023/12/30 11:37:26;;;;;;;;;;;8.50;99.90;;;;;;5147305;27;20354;-69
2023/12/30 11:39:52;;;;;;;;;;;8.50;99.90;;;;;;5123137;27;19942;-69
2023/12/30 11:42:18;;;;;;;;;;;8.50;99.90;;;;;;5142849;27;20034;-69
2023/12/30 11:44:43;;;;;;;;;;;8.50;99.90;;;;;;5118539;27;20002;-69
2023/12/30 11:47:09;;;;;;;;;;;8.50;99.90;;;;;;5126346;27;20345;-69
2023/12/30 11:49:35;;;;;;;;;;;8.50;99.90;;;;;;5123065;27;20069;-69
2023/12/30 11:52:02;;;;;;;;;;;8.60;99.90;;;;;;5145904;27;19911;-69
2023/12/30 11:54:27;;;;;;;;;;;8.50;99.90;;;;;;5139535;27;19922;-68
2023/12/30 11:56:53;;;;;;;;;;;8.60;99.90;;;;;;5138714;27;20617;-69
2023/12/30 11:59:19;;;;;;;;;;;8.60;99.90;;;;;;5125882;27;19919;-69
2023/12/30 12:01:46;;;;;;;;;;;8.70;99.90;;;;;;5125879;27;19930;-69
2023/12/30 12:04:13;;;;;;;;;;;8.70;99.90;;;;;;5119799;27;20032;-69
2023/12/30 12:06:38;;;;;;;;;;;8.70;99.90;;;;;;5132454;27;19957;-69
2023/12/30 12:09:05;;;;;;;;;;;8.70;99.90;;;;;;5109083;27;19980;-69
2023/12/30 12:11:31;;;;;;;;;;;8.80;99.90;;;;;;5127792;27;19911;-69
2023/12/30 12:13:57;;;;;;;;;;;8.70;99.90;;;;;;5124358;27;19988;-69
2023/12/30 12:16:25;;;;;;;;;;;8.80;99.90;;;;;;5118802;27;20360;-69
2023/12/30 12:18:50;;;;;;;;;;;8.80;99.90;;;;;;5125556;27;19938;-69
2023/12/30 12:21:16;;;;;;;;;;;8.80;99.90;;;;;;5121616;27;20636;-69
2023/12/30 12:23:42;;;;;;;;;;;8.80;99.90;;;;;;5128785;27;19911;-69
2023/12/30 12:26:08;;;;;;;;;;;8.80;99.90;;;;;;5138728;27;19950;-68
2023/12/30 12:28:33;;;;;;;;;;;8.80;99.90;;;;;;5121756;27;19912;-69
2023/12/30 12:31:02;;;;;;;;;;;8.90;99.90;;;;;;5114334;27;19959;-69
2023/12/30 12:33:28;;;;;;;;;;;8.90;99.90;;;;;;5114013;27;19922;-69
2023/12/30 12:35:53;;;;;;;;;;;8.90;99.90;;;;;;5127897;27;19911;-69
2023/12/30 12:38:19;;;;;;;;;;;8.90;99.90;;;;;;5115180;27;20404;-69
2023/12/30 12:40:45;;;;;;;;;;;8.90;99.90;;;;;;5133984;27;19912;-69
2023/12/30 12:43:10;;;;;;;;;;;8.90;99.90;;;;;;5120573;27;19912;-69
2023/12/30 12:45:36;;;;;;;;;;;8.90;99.90;;;;;;5121222;27;20029;-69
2023/12/30 12:48:01;;;;;;;;;;;8.90;99.90;;;;;;5133544;27;19918;-69
2023/12/30 12:50:27;;;;;;;;;;;8.90;99.90;;;;;;5138322;27;20332;-69
2023/12/30 12:52:52;;;;;;;;;;;9.00;99.90;;;;;;5138182;27;20002;-69
2023/12/30 12:55:18;;;;;;;;;;;9.00;99.90;;;;;;5144136;27;19941;-69
2023/12/30 12:57:43;;;;;;;;;;;9.00;99.90;;;;;;5132790;27;20340;-69
2023/12/30 13:00:09;;;;;;;;;;;9.10;99.90;;;;;;5136329;27;19911;-69
2023/12/30 13:02:36;;;;;;;;;;;9.10;99.90;;;;;;5110269;27;19964;-69
2023/12/30 13:05:04;;;;;;;;;;;9.10;99.90;;;;;;5116066;27;19911;-69
2023/12/30 13:07:29;;;;;;;;;;;9.10;99.90;;;;;;5128261;27;19977;-69
2023/12/30 13:09:58;;;;;;;;;;;9.10;99.90;;;;;;5129808;27;20373;-69
2023/12/30 13:12:24;;;;;;;;;;;9.20;99.90;;;;;;5123283;27;19915;-69
2023/12/30 13:14:52;;;;;;;;;;;9.20;99.90;;;;;;5134072;27;19911;-69
2023/12/30 13:17:18;;;;;;;;;;;9.20;99.90;;;;;;5119300;27;19918;-69
2023/12/30 13:19:44;;;;;;;;;;;9.20;99.90;;;;;;5128481;27;19988;-69
2023/12/30 13:22:10;;;;;;;;;;;9.20;99.90;;;;;;5125924;27;19907;-69
2023/12/30 13:24:38;;;;;;;;;;;9.20;99.90;;;;;;5111079;27;19971;-69
2023/12/30 13:27:04;;;;;;;;;;;9.20;99.90;;;;;;5112566;27;19923;-69
2023/12/30 13:29:31;;;;;;;;;;;9.20;99.90;;;;;;5125820;27;19922;-69
2023/12/30 13:31:56;;;;;;;;;;;9.30;99.90;;;;;;5119829;27;19927;-69
2023/12/30 13:34:22;;;;;;;;;;;9.30;99.90;;;;;;5136996;27;19938;-69
2023/12/30 13:36:56;;;;;;;;;;;9.20;99.90;;;;;;5129738;27;19911;-69
2023/12/30 13:39:22;;;;;;;;;;;9.20;99.90;;;;;;5107999;27;19912;-69
2023/12/30 13:41:48;;;;;;;;;;;9.30;99.90;;;;;;5112250;27;20520;-69
2023/12/30 13:44:15;;;;;;;;;;;9.30;99.90;;;;;;5125922;27;20506;-69
2023/12/30 13:51:36;;;;;;;;;;;9.30;99.90;;;;;;5128887;27;19911;-69
2023/12/30 13:54:02;;;;;;;;;;;9.40;99.90;;;;;;5128117;27;20467;-69
2023/12/30 13:56:28;;;;;;;;;;;9.40;99.90;;;;;;5120983;27;19936;-69
2023/12/30 13:58:57;;;;;;;;;;;9.40;99.90;;;;;;5120954;28;19972;-69
2023/12/30 14:01:23;;;;;;;;;;;9.40;99.90;;;;;;5118808;28;19999;-69
2023/12/30 14:03:51;;;;;;;;;;;9.40;99.90;;;;;;5122072;28;19915;-69
2023/12/30 14:06:20;;;;;;;;;;;9.40;99.90;;;;;;5110659;27;20043;-69
2023/12/30 14:08:45;;;;;;;;;;;9.40;99.90;;;;;;5113215;27;20584;-69
2023/12/30 14:13:58;;;;;;;;;;;9.40;99.90;;;;;;5117041;27;19965;-69
2023/12/30 14:16:23;;;;;;;;;;;9.40;99.90;;;;;;5113043;27;19912;-69
2023/12/30 14:18:49;;;;;;;;;;;9.40;99.90;;;;;;5120189;27;19918;-69
2023/12/30 14:21:16;;;;;;;;;;;9.40;99.90;;;;;;5113360;27;20039;-69
2023/12/30 14:23:42;;;;;;;;;;;9.40;99.90;;;;;;5134354;27;19912;-69
2023/12/30 14:26:07;;;;;;;;;;;9.40;99.90;;;;;;5123138;27;19915;-69
2023/12/30 14:28:33;;;;;;;;;;;9.40;99.90;;;;;;5123445;28;20280;-69
2023/12/30 14:30:58;;;;;;;;;;;9.40;99.90;;;;;;5120534;27;19923;-69